sensor_id;sensor_type;location;lat;lon;timestamp;P1;P2;P0
73146;PMS7003;61345;48.922;2.244;2022-11-15T00:00:53;4.25;4.25;3.00
73146;PMS7003;61345;48.922;2.244;2022-11-15T00:03:20;6.00;3.75;3.00
73146;PMS7003;61345;48.922;2.244;2022-11-15T00:05:47;8.00;4.25;3.75
73146;PMS7003;61345;48.922;2.244;2022-11-15T00:08:13;3.50;3.50;3.00
73146;PMS7003;61345;48.922;2.244;2022-11-15T00:10:38;6.00;3.25;3.00
73146;PMS7003;61345;48.922;2.244;2022-11-15T00:13:04;6.75;4.25;2.75
73146;PMS7003;61345;48.922;2.244;2022-11-15T00:15:31;7.00;3.25;2.50
73146;PMS7003;61345;48.922;2.244;2022-11-15T00:17:58;10.75;6.25;3.50
73146;PMS7003;61345;48.922;2.244;2022-11-15T00:20:24;8.00;6.00;4.00
73146;PMS7003;61345;48.922;2.244;2022-11-15T00:22:49;6.50;6.00;4.25
73146;PMS7003;61345;48.922;2.244;2022-11-15T00:25:17;4.75;3.00;3.00
73146;PMS7003;61345;48.922;2.244;2022-11-15T00:27:42;6.50;4.50;3.25
73146;PMS7003;61345;48.922;2.244;2022-11-15T00:30:07;5.50;3.00;2.00
73146;PMS7003;61345;48.922;2.244;2022-11-15T00:32:33;13.00;5.25;4.25
73146;PMS7003;61345;48.922;2.244;2022-11-15T00:34:58;4.50;3.00;2.75
73146;PMS7003;61345;48.922;2.244;2022-11-15T00:37:31;6.50;4.25;3.00
73146;PMS7003;61345;48.922;2.244;2022-11-15T00:39:57;6.00;5.00;3.00
73146;PMS7003;61345;48.922;2.244;2022-11-15T00:42:22;5.75;2.25;2.00
73146;PMS7003;61345;48.922;2.244;2022-11-15T00:44:47;5.00;5.00;2.75
73146;PMS7003;61345;48.922;2.244;2022-11-15T00:47:13;7.00;3.00;3.00
73146;PMS7003;61345;48.922;2.244;2022-11-15T00:49:38;5.75;3.00;2.00
73146;PMS7003;61345;48.922;2.244;2022-11-15T00:52:06;6.25;3.75;3.00
73146;PMS7003;61345;48.922;2.244;2022-11-15T00:54:31;4.00;3.00;2.00
73146;PMS7003;61345;48.922;2.244;2022-11-15T00:56:56;5.00;2.00;1.25
73146;PMS7003;61345;48.922;2.244;2022-11-15T00:59:22;2.00;2.00;1.75
73146;PMS7003;61345;48.922;2.244;2022-11-15T01:01:47;2.25;1.50;1.00
73146;PMS7003;61345;48.922;2.244;2022-11-15T01:04:12;5.75;2.00;2.00
73146;PMS7003;61345;48.922;2.244;2022-11-15T01:06:38;7.00;3.00;2.00
73146;PMS7003;61345;48.922;2.244;2022-11-15T01:09:04;1.75;1.00;1.00
73146;PMS7003;61345;48.922;2.244;2022-11-15T01:11:29;3.25;2.00;1.50
73146;PMS7003;61345;48.922;2.244;2022-11-15T01:13:54;4.50;1.75;1.00
73146;PMS7003;61345;48.922;2.244;2022-11-15T01:16:20;0.00;0.00;0.00
73146;PMS7003;61345;48.922;2.244;2022-11-15T01:18:45;2.00;2.00;1.50
73146;PMS7003;61345;48.922;2.244;2022-11-15T01:21:12;1.00;1.00;1.00
73146;PMS7003;61345;48.922;2.244;2022-11-15T01:23:41;5.25;1.00;1.00
73146;PMS7003;61345;48.922;2.244;2022-11-15T01:26:09;1.25;1.25;1.00
73146;PMS7003;61345;48.922;2.244;2022-11-15T01:28:38;3.25;1.50;1.00
73146;PMS7003;61345;48.922;2.244;2022-11-15T01:31:07;1.00;1.00;1.00
73146;PMS7003;61345;48.922;2.244;2022-11-15T01:33:35;3.00;1.00;1.00
73146;PMS7003;61345;48.922;2.244;2022-11-15T01:36:05;1.00;1.00;1.00
73146;PMS7003;61345;48.922;2.244;2022-11-15T01:38:41;5.00;1.00;1.00
73146;PMS7003;61345;48.922;2.244;2022-11-15T01:41:13;2.00;1.50;1.00
73146;PMS7003;61345;48.922;2.244;2022-11-15T01:43:40;1.00;1.00;0.50
73146;PMS7003;61345;48.922;2.244;2022-11-15T01:46:06;1.00;1.00;1.00
73146;PMS7003;61345;48.922;2.244;2022-11-15T01:48:59;2.00;1.25;1.00
73146;PMS7003;61345;48.922;2.244;2022-11-15T01:51:31;5.00;1.75;1.00
73146;PMS7003;61345;48.922;2.244;2022-11-15T01:54:02;2.00;1.00;1.00
73146;PMS7003;61345;48.922;2.244;2022-11-15T01:56:32;2.75;2.00;1.00
73146;PMS7003;61345;48.922;2.244;2022-11-15T01:58:58;5.00;1.00;1.00
73146;PMS7003;61345;48.922;2.244;2022-11-15T02:01:27;2.50;1.00;1.00
73146;PMS7003;61345;48.922;2.244;2022-11-15T02:03:58;1.00;1.00;1.00
73146;PMS7003;61345;48.922;2.244;2022-11-15T02:06:27;1.75;1.75;1.00
73146;PMS7003;61345;48.922;2.244;2022-11-15T02:08:52;1.00;1.00;1.00
73146;PMS7003;61345;48.922;2.244;2022-11-15T02:11:18;2.25;2.25;2.00
73146;PMS7003;61345;48.922;2.244;2022-11-15T02:13:43;2.50;2.00;1.00
73146;PMS7003;61345;48.922;2.244;2022-11-15T02:18:46;2.00;0.00;0.00
73146;PMS7003;61345;48.922;2.244;2022-11-15T02:24:04;2.50;0.00;0.00
73146;PMS7003;61345;48.922;2.244;2022-11-15T02:32:15;2.00;1.00;0.00
73146;PMS7003;61345;48.922;2.244;2022-11-15T02:34:54;6.00;1.00;0.75
73146;PMS7003;61345;48.922;2.244;2022-11-15T02:40:17;3.00;2.00;1.00
73146;PMS7003;61345;48.922;2.244;2022-11-15T02:43:08;1.00;0.00;0.00
73146;PMS7003;61345;48.922;2.244;2022-11-15T02:45:56;5.00;1.00;1.00
73146;PMS7003;61345;48.922;2.244;2022-11-15T02:48:33;2.00;1.75;1.00
73146;PMS7003;61345;48.922;2.244;2022-11-15T02:50:59;2.50;1.00;1.00
73146;PMS7003;61345;48.922;2.244;2022-11-15T02:53:25;2.75;1.00;1.00
73146;PMS7003;61345;48.922;2.244;2022-11-15T02:55:50;5.50;2.75;2.00
73146;PMS7003;61345;48.922;2.244;2022-11-15T03:08:58;0.75;0.75;0.00
73146;PMS7003;61345;48.922;2.244;2022-11-15T03:11:29;8.50;2.50;2.25
73146;PMS7003;61345;48.922;2.244;2022-11-15T03:19:56;2.50;1.00;1.00
73146;PMS7003;61345;48.922;2.244;2022-11-15T03:22:23;5.00;2.25;2.00
73146;PMS7003;61345;48.922;2.244;2022-11-15T03:24:52;3.00;1.00;1.00
73146;PMS7003;61345;48.922;2.244;2022-11-15T03:27:20;2.00;2.00;2.00
73146;PMS7003;61345;48.922;2.244;2022-11-15T03:29:50;2.00;2.00;1.75
73146;PMS7003;61345;48.922;2.244;2022-11-15T03:32:19;3.00;3.00;2.25
73146;PMS7003;61345;48.922;2.244;2022-11-15T03:34:56;2.00;2.00;2.00
73146;PMS7003;61345;48.922;2.244;2022-11-15T03:37:29;4.00;1.75;1.00
73146;PMS7003;61345;48.922;2.244;2022-11-15T03:39:59;1.00;1.00;1.00
73146;PMS7003;61345;48.922;2.244;2022-11-15T03:42:27;2.75;2.25;1.25
73146;PMS7003;61345;48.922;2.244;2022-11-15T03:45:14;1.75;1.25;1.00
73146;PMS7003;61345;48.922;2.244;2022-11-15T03:47:51;2.00;1.00;1.00
73146;PMS7003;61345;48.922;2.244;2022-11-15T03:50:21;2.00;1.00;0.50
73146;PMS7003;61345;48.922;2.244;2022-11-15T03:52:48;5.00;2.00;1.00
73146;PMS7003;61345;48.922;2.244;2022-11-15T03:55:17;2.25;2.00;1.00
73146;PMS7003;61345;48.922;2.244;2022-11-15T03:57:43;3.00;2.00;1.00
73146;PMS7003;61345;48.922;2.244;2022-11-15T04:00:09;3.00;2.00;1.25
73146;PMS7003;61345;48.922;2.244;2022-11-15T04:02:36;4.25;2.00;1.75
73146;PMS7003;61345;48.922;2.244;2022-11-15T04:05:01;6.00;1.00;1.00
73146;PMS7003;61345;48.922;2.244;2022-11-15T04:07:26;2.25;1.50;1.00
73146;PMS7003;61345;48.922;2.244;2022-11-15T04:09:52;1.75;1.00;1.00
73146;PMS7003;61345;48.922;2.244;2022-11-15T04:12:31;2.00;1.00;1.00
73146;PMS7003;61345;48.922;2.244;2022-11-15T04:15:03;1.50;1.50;1.50
73146;PMS7003;61345;48.922;2.244;2022-11-15T04:17:36;2.25;2.00;1.75
73146;PMS7003;61345;48.922;2.244;2022-11-15T04:20:10;1.25;1.00;1.00
73146;PMS7003;61345;48.922;2.244;2022-11-15T04:22:57;2.75;1.00;1.00
73146;PMS7003;61345;48.922;2.244;2022-11-15T04:25:42;2.00;2.00;1.00
73146;PMS7003;61345;48.922;2.244;2022-11-15T04:28:08;0.50;0.00;0.00
73146;PMS7003;61345;48.922;2.244;2022-11-15T04:30:36;1.00;1.00;1.00
73146;PMS7003;61345;48.922;2.244;2022-11-15T04:33:01;10.25;2.00;1.00
73146;PMS7003;61345;48.922;2.244;2022-11-15T04:35:27;4.00;1.25;1.00
73146;PMS7003;61345;48.922;2.244;2022-11-15T04:37:53;1.00;1.00;1.00
73146;PMS7003;61345;48.922;2.244;2022-11-15T04:40:19;1.75;1.00;1.00
73146;PMS7003;61345;48.922;2.244;2022-11-15T04:42:44;1.00;1.00;1.00
73146;PMS7003;61345;48.922;2.244;2022-11-15T04:45:09;2.00;1.25;1.00
73146;PMS7003;61345;48.922;2.244;2022-11-15T04:47:35;2.00;1.25;1.00
73146;PMS7003;61345;48.922;2.244;2022-11-15T04:50:00;2.50;1.00;1.00
73146;PMS7003;61345;48.922;2.244;2022-11-15T04:52:26;2.00;1.00;1.00
73146;PMS7003;61345;48.922;2.244;2022-11-15T04:54:51;2.50;1.00;1.00
73146;PMS7003;61345;48.922;2.244;2022-11-15T04:57:17;2.25;1.25;1.00
73146;PMS7003;61345;48.922;2.244;2022-11-15T04:59:42;1.75;1.75;1.00
73146;PMS7003;61345;48.922;2.244;2022-11-15T05:02:07;1.00;1.00;0.00
73146;PMS7003;61345;48.922;2.244;2022-11-15T05:04:33;1.25;1.25;1.00
73146;PMS7003;61345;48.922;2.244;2022-11-15T05:06:58;4.50;2.25;1.00
73146;PMS7003;61345;48.922;2.244;2022-11-15T05:09:23;3.50;2.00;2.00
73146;PMS7003;61345;48.922;2.244;2022-11-15T05:11:49;0.00;0.00;0.00
73146;PMS7003;61345;48.922;2.244;2022-11-15T05:14:14;1.75;1.75;1.75
73146;PMS7003;61345;48.922;2.244;2022-11-15T05:16:40;1.50;1.50;1.00
73146;PMS7003;61345;48.922;2.244;2022-11-15T05:19:06;4.00;2.25;2.00
73146;PMS7003;61345;48.922;2.244;2022-11-15T05:21:31;3.00;1.00;0.50
73146;PMS7003;61345;48.922;2.244;2022-11-15T05:23:57;4.50;2.50;2.00
73146;PMS7003;61345;48.922;2.244;2022-11-15T05:26:23;2.75;2.00;2.00
73146;PMS7003;61345;48.922;2.244;2022-11-15T05:28:52;2.00;1.00;1.00
73146;PMS7003;61345;48.922;2.244;2022-11-15T05:31:19;2.25;2.25;1.50
73146;PMS7003;61345;48.922;2.244;2022-11-15T05:33:44;2.25;1.50;1.00
73146;PMS7003;61345;48.922;2.244;2022-11-15T05:36:27;6.75;2.00;1.75
73146;PMS7003;61345;48.922;2.244;2022-11-15T05:38:54;0.00;0.00;0.00
73146;PMS7003;61345;48.922;2.244;2022-11-15T05:41:23;2.50;1.00;1.00
73146;PMS7003;61345;48.922;2.244;2022-11-15T05:43:52;2.75;2.00;2.00
73146;PMS7003;61345;48.922;2.244;2022-11-15T05:46:18;1.50;1.25;1.00
73146;PMS7003;61345;48.922;2.244;2022-11-15T05:48:45;2.50;2.00;1.50
73146;PMS7003;61345;48.922;2.244;2022-11-15T05:51:13;5.25;3.50;2.50
73146;PMS7003;61345;48.922;2.244;2022-11-15T05:53:40;3.00;2.00;1.00
73146;PMS7003;61345;48.922;2.244;2022-11-15T05:56:05;4.50;2.25;1.75
73146;PMS7003;61345;48.922;2.244;2022-11-15T05:58:34;2.00;2.00;1.00
73146;PMS7003;61345;48.922;2.244;2022-11-15T06:01:01;6.25;5.00;3.00
73146;PMS7003;61345;48.922;2.244;2022-11-15T06:03:26;5.00;3.00;2.00
73146;PMS7003;61345;48.922;2.244;2022-11-15T06:05:51;5.00;2.75;2.00
73146;PMS7003;61345;48.922;2.244;2022-11-15T06:08:17;3.00;2.50;2.50
73146;PMS7003;61345;48.922;2.244;2022-11-15T06:10:42;6.00;5.00;2.25
73146;PMS7003;61345;48.922;2.244;2022-11-15T06:13:08;2.25;2.25;2.00
73146;PMS7003;61345;48.922;2.244;2022-11-15T06:15:33;4.50;2.00;2.00
73146;PMS7003;61345;48.922;2.244;2022-11-15T06:17:59;3.00;2.00;2.00
73146;PMS7003;61345;48.922;2.244;2022-11-15T06:20:28;6.00;4.00;1.50
73146;PMS7003;61345;48.922;2.244;2022-11-15T06:22:58;6.00;5.00;2.75
73146;PMS7003;61345;48.922;2.244;2022-11-15T06:25:24;9.50;5.00;3.00
73146;PMS7003;61345;48.922;2.244;2022-11-15T06:27:53;10.75;3.00;2.25
73146;PMS7003;61345;48.922;2.244;2022-11-15T06:30:19;3.75;2.50;2.00
73146;PMS7003;61345;48.922;2.244;2022-11-15T06:32:45;7.00;2.75;2.25
73146;PMS7003;61345;48.922;2.244;2022-11-15T06:35:10;9.00;3.50;3.00
73146;PMS7003;61345;48.922;2.244;2022-11-15T06:37:36;5.00;5.00;3.00
73146;PMS7003;61345;48.922;2.244;2022-11-15T06:40:01;4.00;2.75;2.00
73146;PMS7003;61345;48.922;2.244;2022-11-15T06:42:27;5.25;5.00;3.00
73146;PMS7003;61345;48.922;2.244;2022-11-15T06:44:52;3.00;3.00;2.75
73146;PMS7003;61345;48.922;2.244;2022-11-15T06:47:17;6.50;5.00;5.00
73146;PMS7003;61345;48.922;2.244;2022-11-15T06:49:43;10.75;5.00;2.25
73146;PMS7003;61345;48.922;2.244;2022-11-15T06:52:08;4.50;3.00;2.00
73146;PMS7003;61345;48.922;2.244;2022-11-15T06:54:33;4.50;4.50;3.00
73146;PMS7003;61345;48.922;2.244;2022-11-15T06:56:59;6.75;5.00;3.50
73146;PMS7003;61345;48.922;2.244;2022-11-15T06:59:24;6.75;5.00;3.00
73146;PMS7003;61345;48.922;2.244;2022-11-15T07:01:49;5.75;2.25;2.25
73146;PMS7003;61345;48.922;2.244;2022-11-15T07:04:15;5.25;3.00;3.00
73146;PMS7003;61345;48.922;2.244;2022-11-15T07:06:45;5.25;2.00;1.75
73146;PMS7003;61345;48.922;2.244;2022-11-15T07:09:12;6.75;4.50;2.00
73146;PMS7003;61345;48.922;2.244;2022-11-15T07:11:37;5.50;3.00;2.50
73146;PMS7003;61345;48.922;2.244;2022-11-15T07:14:02;3.00;3.00;2.50
73146;PMS7003;61345;48.922;2.244;2022-11-15T07:16:28;6.50;5.00;3.00
73146;PMS7003;61345;48.922;2.244;2022-11-15T07:18:53;3.50;3.00;2.25
73146;PMS7003;61345;48.922;2.244;2022-11-15T07:21:18;4.00;2.00;1.00
73146;PMS7003;61345;48.922;2.244;2022-11-15T07:23:43;2.00;2.00;2.00
73146;PMS7003;61345;48.922;2.244;2022-11-15T07:26:09;8.25;2.50;2.00
73146;PMS7003;61345;48.922;2.244;2022-11-15T07:28:34;5.75;2.00;2.00
73146;PMS7003;61345;48.922;2.244;2022-11-15T07:31:04;12.50;3.00;2.00
73146;PMS7003;61345;48.922;2.244;2022-11-15T07:33:30;4.00;4.00;2.00
73146;PMS7003;61345;48.922;2.244;2022-11-15T07:35:58;4.00;4.00;3.00
73146;PMS7003;61345;48.922;2.244;2022-11-15T07:38:26;6.25;2.25;2.00
73146;PMS7003;61345;48.922;2.244;2022-11-15T07:40:55;4.00;2.00;1.00
73146;PMS7003;61345;48.922;2.244;2022-11-15T07:43:22;6.50;2.00;2.00
73146;PMS7003;61345;48.922;2.244;2022-11-15T07:45:47;3.00;2.00;1.75
73146;PMS7003;61345;48.922;2.244;2022-11-15T07:48:13;2.75;2.75;2.00
73146;PMS7003;61345;48.922;2.244;2022-11-15T07:50:41;8.50;4.00;3.00
73146;PMS7003;61345;48.922;2.244;2022-11-15T07:53:07;7.25;3.00;3.00
73146;PMS7003;61345;48.922;2.244;2022-11-15T07:55:33;2.25;2.25;1.75
73146;PMS7003;61345;48.922;2.244;2022-11-15T07:58:02;8.00;5.00;3.00
73146;PMS7003;61345;48.922;2.244;2022-11-15T08:00:28;6.50;2.25;2.00
73146;PMS7003;61345;48.922;2.244;2022-11-15T08:03:00;3.50;1.50;1.50
73146;PMS7003;61345;48.922;2.244;2022-11-15T08:05:27;5.50;4.00;3.00
73146;PMS7003;61345;48.922;2.244;2022-11-15T08:07:54;1.25;1.25;1.00
73146;PMS7003;61345;48.922;2.244;2022-11-15T08:10:20;3.00;2.00;2.00
73146;PMS7003;61345;48.922;2.244;2022-11-15T08:12:46;3.50;3.00;2.00
73146;PMS7003;61345;48.922;2.244;2022-11-15T08:15:11;3.50;2.00;2.00
73146;PMS7003;61345;48.922;2.244;2022-11-15T08:17:36;5.00;3.00;2.00
73146;PMS7003;61345;48.922;2.244;2022-11-15T08:20:02;6.50;3.00;2.00
73146;PMS7003;61345;48.922;2.244;2022-11-15T08:22:28;4.00;3.00;2.00
73146;PMS7003;61345;48.922;2.244;2022-11-15T08:24:53;2.00;2.00;2.00
73146;PMS7003;61345;48.922;2.244;2022-11-15T08:27:19;5.25;1.50;1.25
73146;PMS7003;61345;48.922;2.244;2022-11-15T08:29:47;3.00;3.00;2.25
73146;PMS7003;61345;48.922;2.244;2022-11-15T08:32:13;2.25;2.00;1.00
73146;PMS7003;61345;48.922;2.244;2022-11-15T08:34:39;5.25;3.00;2.00
73146;PMS7003;61345;48.922;2.244;2022-11-15T08:37:04;4.25;3.00;2.00
73146;PMS7003;61345;48.922;2.244;2022-11-15T08:39:30;2.00;2.00;2.00
73146;PMS7003;61345;48.922;2.244;2022-11-15T08:41:55;3.00;2.25;2.00
73146;PMS7003;61345;48.922;2.244;2022-11-15T08:44:21;7.00;2.75;2.00
73146;PMS7003;61345;48.922;2.244;2022-11-15T08:46:48;6.00;3.00;2.00
73146;PMS7003;61345;48.922;2.244;2022-11-15T08:49:14;5.50;3.25;2.75
73146;PMS7003;61345;48.922;2.244;2022-11-15T08:51:42;3.00;3.00;2.00
73146;PMS7003;61345;48.922;2.244;2022-11-15T08:54:07;3.00;3.00;3.00
73146;PMS7003;61345;48.922;2.244;2022-11-15T08:56:35;4.50;2.75;2.00
73146;PMS7003;61345;48.922;2.244;2022-11-15T08:59:00;2.50;2.00;1.75
73146;PMS7003;61345;48.922;2.244;2022-11-15T09:01:28;3.25;2.00;1.50
73146;PMS7003;61345;48.922;2.244;2022-11-15T09:03:53;6.25;2.00;1.50
73146;PMS7003;61345;48.922;2.244;2022-11-15T09:06:19;2.00;2.00;1.50
73146;PMS7003;61345;48.922;2.244;2022-11-15T09:08:45;3.50;2.00;2.00
73146;PMS7003;61345;48.922;2.244;2022-11-15T09:11:10;3.00;3.00;2.00
73146;PMS7003;61345;48.922;2.244;2022-11-15T09:13:36;3.00;1.00;1.00
73146;PMS7003;61345;48.922;2.244;2022-11-15T09:16:02;3.25;2.75;2.75
73146;PMS7003;61345;48.922;2.244;2022-11-15T09:18:28;2.75;2.00;2.00
73146;PMS7003;61345;48.922;2.244;2022-11-15T09:20:57;2.25;2.25;2.00
73146;PMS7003;61345;48.922;2.244;2022-11-15T09:23:23;4.25;2.00;1.75
73146;PMS7003;61345;48.922;2.244;2022-11-15T09:25:49;1.00;1.00;1.00
73146;PMS7003;61345;48.922;2.244;2022-11-15T09:28:15;2.00;2.00;1.00
73146;PMS7003;61345;48.922;2.244;2022-11-15T09:30:40;2.50;2.00;1.75
73146;PMS7003;61345;48.922;2.244;2022-11-15T09:33:06;3.00;2.75;2.00
73146;PMS7003;61345;48.922;2.244;2022-11-15T09:35:32;1.00;1.00;0.00
73146;PMS7003;61345;48.922;2.244;2022-11-15T09:37:58;3.25;1.50;1.00
73146;PMS7003;61345;48.922;2.244;2022-11-15T09:40:26;4.00;2.50;2.00
73146;PMS7003;61345;48.922;2.244;2022-11-15T09:48:11;7.00;1.50;1.00
73146;PMS7003;61345;48.922;2.244;2022-11-15T09:50:41;3.25;2.50;2.00
73146;PMS7003;61345;48.922;2.244;2022-11-15T09:53:12;1.00;1.00;1.00
73146;PMS7003;61345;48.922;2.244;2022-11-15T09:55:58;2.25;2.25;2.00
73146;PMS7003;61345;48.922;2.244;2022-11-15T09:58:39;5.75;2.00;2.00
73146;PMS7003;61345;48.922;2.244;2022-11-15T10:04:22;3.00;1.75;1.00
73146;PMS7003;61345;48.922;2.244;2022-11-15T10:12:44;1.00;0.00;0.00
73146;PMS7003;61345;48.922;2.244;2022-11-15T10:15:12;2.00;2.00;1.00
73146;PMS7003;61345;48.922;2.244;2022-11-15T10:20:21;4.25;3.00;2.00
73146;PMS7003;61345;48.922;2.244;2022-11-15T10:22:52;2.75;2.75;2.00
73146;PMS7003;61345;48.922;2.244;2022-11-15T10:25:23;2.00;1.75;1.75
73146;PMS7003;61345;48.922;2.244;2022-11-15T10:27:59;3.25;1.00;0.75
73146;PMS7003;61345;48.922;2.244;2022-11-15T10:30:48;3.00;3.00;2.50
73146;PMS7003;61345;48.922;2.244;2022-11-15T10:38:40;2.00;2.00;2.00
73146;PMS7003;61345;48.922;2.244;2022-11-15T10:49:22;3.00;1.75;1.25
73146;PMS7003;61345;48.922;2.244;2022-11-15T10:51:57;2.50;2.50;2.00
73146;PMS7003;61345;48.922;2.244;2022-11-15T10:54:25;2.75;2.00;1.00
73146;PMS7003;61345;48.922;2.244;2022-11-15T10:56:58;3.00;2.00;1.50
73146;PMS7003;61345;48.922;2.244;2022-11-15T10:59:31;6.25;4.00;4.00
73146;PMS7003;61345;48.922;2.244;2022-11-15T11:01:58;3.00;2.00;1.00
73146;PMS7003;61345;48.922;2.244;2022-11-15T11:04:24;3.25;2.00;1.00
73146;PMS7003;61345;48.922;2.244;2022-11-15T11:06:50;8.50;5.25;3.50
73146;PMS7003;61345;48.922;2.244;2022-11-15T11:09:40;2.25;2.00;2.00
73146;PMS7003;61345;48.922;2.244;2022-11-15T11:12:10;2.75;1.75;1.50
73146;PMS7003;61345;48.922;2.244;2022-11-15T11:14:37;3.50;2.50;2.00
73146;PMS7003;61345;48.922;2.244;2022-11-15T11:19:41;4.00;3.00;2.00
73146;PMS7003;61345;48.922;2.244;2022-11-15T11:32:46;4.00;3.00;3.00
73146;PMS7003;61345;48.922;2.244;2022-11-15T11:40:58;1.00;1.00;1.00
73146;PMS7003;61345;48.922;2.244;2022-11-15T11:46:19;3.00;3.00;3.00
73146;PMS7003;61345;48.922;2.244;2022-11-15T11:49:12;7.00;6.00;4.00
73146;PMS7003;61345;48.922;2.244;2022-11-15T11:51:49;2.00;0.00;0.00
73146;PMS7003;61345;48.922;2.244;2022-11-15T11:57:06;5.00;2.00;2.00
73146;PMS7003;61345;48.922;2.244;2022-11-15T12:02:44;4.50;4.50;3.50
73146;PMS7003;61345;48.922;2.244;2022-11-15T12:07:40;8.00;6.00;3.75
73146;PMS7003;61345;48.922;2.244;2022-11-15T12:12:39;4.00;4.00;3.00
73146;PMS7003;61345;48.922;2.244;2022-11-15T12:17:35;2.25;0.50;0.00
73146;PMS7003;61345;48.922;2.244;2022-11-15T12:20:06;7.50;6.75;5.50
73146;PMS7003;61345;48.922;2.244;2022-11-15T12:23:23;8.75;7.50;4.00
73146;PMS7003;61345;48.922;2.244;2022-11-15T12:33:50;7.00;6.00;4.00
73146;PMS7003;61345;48.922;2.244;2022-11-15T12:41:45;8.50;6.00;4.00
73146;PMS7003;61345;48.922;2.244;2022-11-15T13:02:21;4.00;3.75;3.00
73146;PMS7003;61345;48.922;2.244;2022-11-15T13:04:48;10.75;6.00;4.00
73146;PMS7003;61345;48.922;2.244;2022-11-15T13:17:38;6.25;5.25;3.50
73146;PMS7003;61345;48.922;2.244;2022-11-15T13:28:01;8.75;4.00;3.75
73146;PMS7003;61345;48.922;2.244;2022-11-15T13:30:36;4.75;4.00;3.00
73146;PMS7003;61345;48.922;2.244;2022-11-15T13:33:14;7.25;4.50;3.75
73146;PMS7003;61345;48.922;2.244;2022-11-15T13:35:45;5.00;5.00;3.00
73146;PMS7003;61345;48.922;2.244;2022-11-15T13:38:22;3.50;2.00;2.00
73146;PMS7003;61345;48.922;2.244;2022-11-15T13:40:51;3.00;3.00;2.50
73146;PMS7003;61345;48.922;2.244;2022-11-15T13:49:04;3.50;3.50;2.00
73146;PMS7003;61345;48.922;2.244;2022-11-15T13:51:52;4.00;4.00;3.25
73146;PMS7003;61345;48.922;2.244;2022-11-15T13:56:57;7.75;4.50;4.00
73146;PMS7003;61345;48.922;2.244;2022-11-15T14:02:03;7.50;6.00;4.00
73146;PMS7003;61345;48.922;2.244;2022-11-15T14:04:37;7.00;3.25;2.00
73146;PMS7003;61345;48.922;2.244;2022-11-15T14:07:04;4.50;4.50;4.00
73146;PMS7003;61345;48.922;2.244;2022-11-15T14:09:31;2.00;2.00;2.00
73146;PMS7003;61345;48.922;2.244;2022-11-15T14:11:58;6.25;2.75;2.50
73146;PMS7003;61345;48.922;2.244;2022-11-15T14:14:25;7.25;4.50;3.00
73146;PMS7003;61345;48.922;2.244;2022-11-15T14:16:52;4.25;3.75;3.00
73146;PMS7003;61345;48.922;2.244;2022-11-15T14:24:42;8.25;4.75;4.00
73146;PMS7003;61345;48.922;2.244;2022-11-15T14:27:16;5.75;4.75;4.00
73146;PMS7003;61345;48.922;2.244;2022-11-15T14:29:43;3.50;3.50;2.25
73146;PMS7003;61345;48.922;2.244;2022-11-15T14:32:13;4.00;4.00;3.25
73146;PMS7003;61345;48.922;2.244;2022-11-15T14:34:40;7.25;6.25;4.00
73146;PMS7003;61345;48.922;2.244;2022-11-15T14:37:10;8.50;3.75;3.00
73146;PMS7003;61345;48.922;2.244;2022-11-15T14:39:44;7.75;4.00;4.00
73146;PMS7003;61345;48.922;2.244;2022-11-15T14:42:09;8.75;6.00;3.50
73146;PMS7003;61345;48.922;2.244;2022-11-15T14:44:34;7.00;5.25;3.25
73146;PMS7003;61345;48.922;2.244;2022-11-15T14:47:00;9.00;5.50;4.00
73146;PMS7003;61345;48.922;2.244;2022-11-15T14:49:25;7.25;5.00;3.50
73146;PMS7003;61345;48.922;2.244;2022-11-15T14:51:51;7.00;7.00;4.25
73146;PMS7003;61345;48.922;2.244;2022-11-15T14:54:16;5.50;3.75;2.00
73146;PMS7003;61345;48.922;2.244;2022-11-15T14:56:41;7.75;6.00;4.00
73146;PMS7003;61345;48.922;2.244;2022-11-15T14:59:07;8.00;7.00;4.00
73146;PMS7003;61345;48.922;2.244;2022-11-15T15:01:32;9.75;5.75;4.00
73146;PMS7003;61345;48.922;2.244;2022-11-15T15:03:58;4.75;4.00;4.00
73146;PMS7003;61345;48.922;2.244;2022-11-15T15:06:25;4.75;4.00;3.50
73146;PMS7003;61345;48.922;2.244;2022-11-15T15:08:51;6.50;4.00;3.25
73146;PMS7003;61345;48.922;2.244;2022-11-15T15:13:49;8.25;7.00;6.00
73146;PMS7003;61345;48.922;2.244;2022-11-15T15:16:15;9.50;7.00;4.00
73146;PMS7003;61345;48.922;2.244;2022-11-15T15:18:40;4.75;4.50;3.75
73146;PMS7003;61345;48.922;2.244;2022-11-15T15:21:13;8.25;4.00;4.00
73146;PMS7003;61345;48.922;2.244;2022-11-15T15:23:44;4.00;1.75;1.00
73146;PMS7003;61345;48.922;2.244;2022-11-15T15:26:12;9.75;7.50;6.00
73146;PMS7003;61345;48.922;2.244;2022-11-15T15:28:37;3.50;3.25;2.50
73146;PMS7003;61345;48.922;2.244;2022-11-15T15:31:04;6.50;6.50;4.00
73146;PMS7003;61345;48.922;2.244;2022-11-15T15:33:29;8.00;6.75;3.75
73146;PMS7003;61345;48.922;2.244;2022-11-15T15:35:55;8.00;7.00;4.00
73146;PMS7003;61345;48.922;2.244;2022-11-15T15:38:20;7.00;6.00;4.25
73146;PMS7003;61345;48.922;2.244;2022-11-15T15:40:46;10.00;9.00;7.75
73146;PMS7003;61345;48.922;2.244;2022-11-15T15:43:14;8.75;4.50;3.50
73146;PMS7003;61345;48.922;2.244;2022-11-15T15:45:40;8.50;7.00;5.25
73146;PMS7003;61345;48.922;2.244;2022-11-15T15:48:09;10.50;8.00;5.25
73146;PMS7003;61345;48.922;2.244;2022-11-15T15:50:36;11.50;8.00;5.25
73146;PMS7003;61345;48.922;2.244;2022-11-15T15:53:02;12.00;10.00;8.00
73146;PMS7003;61345;48.922;2.244;2022-11-15T15:55:28;8.75;8.00;5.25
73146;PMS7003;61345;48.922;2.244;2022-11-15T15:57:54;11.50;9.50;7.00
73146;PMS7003;61345;48.922;2.244;2022-11-15T16:00:20;10.00;8.25;5.00
73146;PMS7003;61345;48.922;2.244;2022-11-15T16:02:47;8.50;7.00;5.00
73146;PMS7003;61345;48.922;2.244;2022-11-15T16:05:13;12.25;8.75;6.00
73146;PMS7003;61345;48.922;2.244;2022-11-15T16:07:39;9.25;7.50;5.00
73146;PMS7003;61345;48.922;2.244;2022-11-15T16:10:19;8.50;6.50;4.25
73146;PMS7003;61345;48.922;2.244;2022-11-15T16:12:45;9.00;7.75;6.75
73146;PMS7003;61345;48.922;2.244;2022-11-15T16:15:10;7.00;7.00;5.00
73146;PMS7003;61345;48.922;2.244;2022-11-15T16:17:40;9.75;7.00;5.25
73146;PMS7003;61345;48.922;2.244;2022-11-15T16:20:19;7.25;4.75;3.00
73146;PMS7003;61345;48.922;2.244;2022-11-15T16:22:49;8.00;5.25;4.00
73146;PMS7003;61345;48.922;2.244;2022-11-15T16:25:14;8.75;4.75;4.00
73146;PMS7003;61345;48.922;2.244;2022-11-15T16:27:40;12.25;7.50;5.25
73146;PMS7003;61345;48.922;2.244;2022-11-15T16:30:19;8.75;8.25;6.25
73146;PMS7003;61345;48.922;2.244;2022-11-15T16:32:46;10.50;7.75;5.25
73146;PMS7003;61345;48.922;2.244;2022-11-15T16:35:11;7.75;5.00;4.25
73146;PMS7003;61345;48.922;2.244;2022-11-15T16:37:37;8.25;7.50;5.25
73146;PMS7003;61345;48.922;2.244;2022-11-15T16:40:09;11.25;5.00;4.00
73146;PMS7003;61345;48.922;2.244;2022-11-15T16:42:55;13.00;8.50;7.00
73146;PMS7003;61345;48.922;2.244;2022-11-15T16:45:21;10.00;5.00;4.00
73146;PMS7003;61345;48.922;2.244;2022-11-15T16:47:46;11.00;9.00;5.50
73146;PMS7003;61345;48.922;2.244;2022-11-15T16:50:22;8.25;7.25;6.00
73146;PMS7003;61345;48.922;2.244;2022-11-15T16:52:50;7.50;5.50;4.00
73146;PMS7003;61345;48.922;2.244;2022-11-15T16:55:22;13.50;9.75;7.50
73146;PMS7003;61345;48.922;2.244;2022-11-15T16:58:01;10.25;8.25;5.00
73146;PMS7003;61345;48.922;2.244;2022-11-15T17:00:26;10.25;9.00;8.00
73146;PMS7003;61345;48.922;2.244;2022-11-15T17:02:54;13.25;10.50;8.00
73146;PMS7003;61345;48.922;2.244;2022-11-15T17:12:07;14.50;10.75;8.25
73146;PMS7003;61345;48.922;2.244;2022-11-15T17:14:40;19.75;16.00;9.50
73146;PMS7003;61345;48.922;2.244;2022-11-15T17:17:20;10.75;9.25;6.50
73146;PMS7003;61345;48.922;2.244;2022-11-15T17:20:16;14.25;13.25;8.75